sensor_id;sensor_type;location;lat;lon;timestamp;temperature;humidity
9849;DHT22;4963;51.444;6.528;2022-10-16T00:00:44;13.50;99.90
9849;DHT22;4963;51.444;6.528;2022-10-16T00:03:11;13.50;99.90
9849;DHT22;4963;51.444;6.528;2022-10-16T00:05:39;13.50;99.90
9849;DHT22;4963;51.444;6.528;2022-10-16T00:08:07;13.50;99.90
9849;DHT22;4963;51.444;6.528;2022-10-16T00:10:34;13.60;99.90
9849;DHT22;4963;51.444;6.528;2022-10-16T00:13:03;13.60;99.90
9849;DHT22;4963;51.444;6.528;2022-10-16T00:15:30;13.60;99.90
9849;DHT22;4963;51.444;6.528;2022-10-16T00:17:58;13.50;99.90
9849;DHT22;4963;51.444;6.528;2022-10-16T00:20:25;13.50;99.90
9849;DHT22;4963;51.444;6.528;2022-10-16T00:22:52;13.50;99.90
9849;DHT22;4963;51.444;6.528;2022-10-16T00:25:19;13.50;99.90
9849;DHT22;4963;51.444;6.528;2022-10-16T00:27:46;13.50;99.90
9849;DHT22;4963;51.444;6.528;2022-10-16T00:30:14;13.50;99.90
9849;DHT22;4963;51.444;6.528;2022-10-16T00:32:41;13.60;99.90
9849;DHT22;4963;51.444;6.528;2022-10-16T00:35:08;13.60;99.90
9849;DHT22;4963;51.444;6.528;2022-10-16T00:37:34;13.60;99.90
9849;DHT22;4963;51.444;6.528;2022-10-16T00:40:01;13.60;99.90
9849;DHT22;4963;51.444;6.528;2022-10-16T00:42:28;13.50;99.90
9849;DHT22;4963;51.444;6.528;2022-10-16T00:44:56;13.50;99.90
9849;DHT22;4963;51.444;6.528;2022-10-16T00:47:29;13.50;99.90
9849;DHT22;4963;51.444;6.528;2022-10-16T00:50:00;13.50;99.90
9849;DHT22;4963;51.444;6.528;2022-10-16T00:52:28;13.50;99.90
9849;DHT22;4963;51.444;6.528;2022-10-16T00:54:56;13.50;99.90
9849;DHT22;4963;51.444;6.528;2022-10-16T00:57:24;13.40;99.90
9849;DHT22;4963;51.444;6.528;2022-10-16T00:59:51;13.40;99.90
9849;DHT22;4963;51.444;6.528;2022-10-16T01:02:18;13.40;99.90
9849;DHT22;4963;51.444;6.528;2022-10-16T01:04:48;13.40;99.90
9849;DHT22;4963;51.444;6.528;2022-10-16T01:07:24;13.40;99.90
9849;DHT22;4963;51.444;6.528;2022-10-16T01:10:02;13.40;99.90
9849;DHT22;4963;51.444;6.528;2022-10-16T01:12:36;13.40;99.90
9849;DHT22;4963;51.444;6.528;2022-10-16T01:15:09;13.40;99.90
9849;DHT22;4963;51.444;6.528;2022-10-16T01:17:41;13.40;99.90
9849;DHT22;4963;51.444;6.528;2022-10-16T01:20:16;13.40;99.90
9849;DHT22;4963;51.444;6.528;2022-10-16T01:22:57;13.40;99.90
9849;DHT22;4963;51.444;6.528;2022-10-16T01:25:30;13.40;99.90
9849;DHT22;4963;51.444;6.528;2022-10-16T01:28:01;13.40;99.90
9849;DHT22;4963;51.444;6.528;2022-10-16T01:30:30;13.40;99.90
9849;DHT22;4963;51.444;6.528;2022-10-16T01:33:02;13.40;99.90
9849;DHT22;4963;51.444;6.528;2022-10-16T01:35:36;13.40;99.90
9849;DHT22;4963;51.444;6.528;2022-10-16T01:38:07;13.40;99.90
9849;DHT22;4963;51.444;6.528;2022-10-16T01:40:36;13.40;99.90
9849;DHT22;4963;51.444;6.528;2022-10-16T01:43:10;13.40;99.90
9849;DHT22;4963;51.444;6.528;2022-10-16T01:45:40;13.40;99.90
9849;DHT22;4963;51.444;6.528;2022-10-16T01:48:11;13.30;99.90
9849;DHT22;4963;51.444;6.528;2022-10-16T01:50:39;13.30;99.90
9849;DHT22;4963;51.444;6.528;2022-10-16T01:53:11;13.40;99.90
9849;DHT22;4963;51.444;6.528;2022-10-16T01:55:41;13.40;99.90
9849;DHT22;4963;51.444;6.528;2022-10-16T01:58:13;13.40;99.90
9849;DHT22;4963;51.444;6.528;2022-10-16T02:00:42;13.40;99.90
9849;DHT22;4963;51.444;6.528;2022-10-16T02:03:11;13.40;99.90
9849;DHT22;4963;51.444;6.528;2022-10-16T02:05:41;13.40;99.90
9849;DHT22;4963;51.444;6.528;2022-10-16T02:08:10;13.40;99.90
9849;DHT22;4963;51.444;6.528;2022-10-16T02:10:38;13.40;99.90
9849;DHT22;4963;51.444;6.528;2022-10-16T02:13:07;13.40;99.90
9849;DHT22;4963;51.444;6.528;2022-10-16T02:15:36;13.40;99.90
9849;DHT22;4963;51.444;6.528;2022-10-16T02:18:04;13.40;99.90
9849;DHT22;4963;51.444;6.528;2022-10-16T02:20:34;13.40;99.90
9849;DHT22;4963;51.444;6.528;2022-10-16T02:23:03;13.30;99.90
9849;DHT22;4963;51.444;6.528;2022-10-16T02:25:32;13.30;99.90
9849;DHT22;4963;51.444;6.528;2022-10-16T02:28:01;13.40;99.90
9849;DHT22;4963;51.444;6.528;2022-10-16T02:30:33;13.30;99.90
9849;DHT22;4963;51.444;6.528;2022-10-16T02:33:04;13.30;99.90
9849;DHT22;4963;51.444;6.528;2022-10-16T02:35:33;13.30;99.90
9849;DHT22;4963;51.444;6.528;2022-10-16T02:38:01;13.30;99.90
9849;DHT22;4963;51.444;6.528;2022-10-16T02:40:28;13.30;99.90
9849;DHT22;4963;51.444;6.528;2022-10-16T02:42:55;13.30;99.90
9849;DHT22;4963;51.444;6.528;2022-10-16T02:45:23;13.30;99.90
9849;DHT22;4963;51.444;6.528;2022-10-16T02:47:50;13.30;99.90
9849;DHT22;4963;51.444;6.528;2022-10-16T02:50:18;13.30;99.90
9849;DHT22;4963;51.444;6.528;2022-10-16T02:52:45;13.30;99.90
9849;DHT22;4963;51.444;6.528;2022-10-16T02:55:12;13.20;99.90
9849;DHT22;4963;51.444;6.528;2022-10-16T02:57:38;13.30;99.90
9849;DHT22;4963;51.444;6.528;2022-10-16T03:00:07;13.30;99.90
9849;DHT22;4963;51.444;6.528;2022-10-16T03:02:34;13.30;99.90
9849;DHT22;4963;51.444;6.528;2022-10-16T03:05:00;13.30;99.90
9849;DHT22;4963;51.444;6.528;2022-10-16T03:07:28;13.30;99.90
9849;DHT22;4963;51.444;6.528;2022-10-16T03:09:55;13.30;99.90
9849;DHT22;4963;51.444;6.528;2022-10-16T03:12:25;13.30;99.90
9849;DHT22;4963;51.444;6.528;2022-10-16T03:14:52;13.20;99.90
9849;DHT22;4963;51.444;6.528;2022-10-16T03:17:19;13.30;99.90
9849;DHT22;4963;51.444;6.528;2022-10-16T03:19:46;13.20;99.90
9849;DHT22;4963;51.444;6.528;2022-10-16T03:22:13;13.20;99.90
9849;DHT22;4963;51.444;6.528;2022-10-16T03:24:41;13.20;99.90
9849;DHT22;4963;51.444;6.528;2022-10-16T03:27:08;13.20;99.90
9849;DHT22;4963;51.444;6.528;2022-10-16T03:29:34;13.20;99.90
9849;DHT22;4963;51.444;6.528;2022-10-16T03:32:01;13.20;99.90
9849;DHT22;4963;51.444;6.528;2022-10-16T03:34:28;13.20;99.90
9849;DHT22;4963;51.444;6.528;2022-10-16T03:36:55;13.20;99.90
9849;DHT22;4963;51.444;6.528;2022-10-16T03:39:21;13.20;99.90
9849;DHT22;4963;51.444;6.528;2022-10-16T03:41:49;13.20;99.90
9849;DHT22;4963;51.444;6.528;2022-10-16T03:44:16;13.20;99.90
9849;DHT22;4963;51.444;6.528;2022-10-16T03:46:43;13.20;99.90
9849;DHT22;4963;51.444;6.528;2022-10-16T03:49:10;13.20;99.90
9849;DHT22;4963;51.444;6.528;2022-10-16T03:51:37;13.20;99.90
9849;DHT22;4963;51.444;6.528;2022-10-16T03:54:04;13.30;99.90
9849;DHT22;4963;51.444;6.528;2022-10-16T03:56:30;13.30;99.90
9849;DHT22;4963;51.444;6.528;2022-10-16T03:58:58;13.20;99.90
9849;DHT22;4963;51.444;6.528;2022-10-16T04:01:25;13.10;99.90
9849;DHT22;4963;51.444;6.528;2022-10-16T04:03:52;13.20;99.90
9849;DHT22;4963;51.444;6.528;2022-10-16T04:06:19;13.20;99.90
9849;DHT22;4963;51.444;6.528;2022-10-16T04:08:45;13.20;99.90
9849;DHT22;4963;51.444;6.528;2022-10-16T04:11:12;13.20;99.90
9849;DHT22;4963;51.444;6.528;2022-10-16T04:13:39;13.20;99.90
9849;DHT22;4963;51.444;6.528;2022-10-16T04:16:08;13.20;99.90
9849;DHT22;4963;51.444;6.528;2022-10-16T04:18:35;13.20;99.90
9849;DHT22;4963;51.444;6.528;2022-10-16T04:21:05;13.20;99.90
9849;DHT22;4963;51.444;6.528;2022-10-16T04:23:33;13.20;99.90
9849;DHT22;4963;51.444;6.528;2022-10-16T04:26:00;13.10;99.90
9849;DHT22;4963;51.444;6.528;2022-10-16T04:28:27;13.10;99.90
9849;DHT22;4963;51.444;6.528;2022-10-16T04:30:54;13.10;99.90
9849;DHT22;4963;51.444;6.528;2022-10-16T04:33:22;13.10;99.90
9849;DHT22;4963;51.444;6.528;2022-10-16T04:35:56;13.20;99.90
9849;DHT22;4963;51.444;6.528;2022-10-16T04:38:23;13.10;99.90
9849;DHT22;4963;51.444;6.528;2022-10-16T04:40:50;13.10;99.90
9849;DHT22;4963;51.444;6.528;2022-10-16T04:43:17;13.10;99.90
9849;DHT22;4963;51.444;6.528;2022-10-16T04:45:44;13.20;99.90
9849;DHT22;4963;51.444;6.528;2022-10-16T04:48:10;13.20;99.90
9849;DHT22;4963;51.444;6.528;2022-10-16T04:50:39;13.10;99.90
9849;DHT22;4963;51.444;6.528;2022-10-16T04:53:05;13.10;99.90
9849;DHT22;4963;51.444;6.528;2022-10-16T04:55:32;13.10;99.90
9849;DHT22;4963;51.444;6.528;2022-10-16T04:57:59;13.10;99.90
9849;DHT22;4963;51.444;6.528;2022-10-16T05:00:26;13.10;99.90
9849;DHT22;4963;51.444;6.528;2022-10-16T05:02:53;13.20;99.90
9849;DHT22;4963;51.444;6.528;2022-10-16T05:05:20;13.10;99.90
9849;DHT22;4963;51.444;6.528;2022-10-16T05:07:48;13.10;99.90
9849;DHT22;4963;51.444;6.528;2022-10-16T05:10:15;13.10;99.90
9849;DHT22;4963;51.444;6.528;2022-10-16T05:12:42;13.10;99.90
9849;DHT22;4963;51.444;6.528;2022-10-16T05:15:09;13.10;99.90
9849;DHT22;4963;51.444;6.528;2022-10-16T05:17:36;13.10;99.90
9849;DHT22;4963;51.444;6.528;2022-10-16T05:20:04;13.10;99.90
9849;DHT22;4963;51.444;6.528;2022-10-16T05:22:31;13.10;99.90
9849;DHT22;4963;51.444;6.528;2022-10-16T05:24:59;13.10;99.90
9849;DHT22;4963;51.444;6.528;2022-10-16T05:27:26;13.10;99.90
9849;DHT22;4963;51.444;6.528;2022-10-16T05:29:53;13.10;99.90
9849;DHT22;4963;51.444;6.528;2022-10-16T05:32:19;13.10;99.90
9849;DHT22;4963;51.444;6.528;2022-10-16T05:34:46;13.10;99.90
9849;DHT22;4963;51.444;6.528;2022-10-16T05:37:13;13.20;99.90
9849;DHT22;4963;51.444;6.528;2022-10-16T05:39:39;13.10;99.90
9849;DHT22;4963;51.444;6.528;2022-10-16T05:42:08;13.20;99.90
9849;DHT22;4963;51.444;6.528;2022-10-16T05:44:34;13.20;99.90
9849;DHT22;4963;51.444;6.528;2022-10-16T05:47:01;13.20;99.90
9849;DHT22;4963;51.444;6.528;2022-10-16T05:49:28;13.10;99.90
9849;DHT22;4963;51.444;6.528;2022-10-16T05:51:54;13.00;99.90
9849;DHT22;4963;51.444;6.528;2022-10-16T05:54:21;13.10;99.90
9849;DHT22;4963;51.444;6.528;2022-10-16T05:56:48;13.00;99.90
9849;DHT22;4963;51.444;6.528;2022-10-16T05:59:16;13.00;99.90
9849;DHT22;4963;51.444;6.528;2022-10-16T06:01:43;13.00;99.90
9849;DHT22;4963;51.444;6.528;2022-10-16T06:04:10;13.00;99.90
9849;DHT22;4963;51.444;6.528;2022-10-16T06:06:37;13.00;99.90
9849;DHT22;4963;51.444;6.528;2022-10-16T06:09:04;13.00;99.90
9849;DHT22;4963;51.444;6.528;2022-10-16T06:11:32;13.00;99.90
9849;DHT22;4963;51.444;6.528;2022-10-16T06:14:01;13.00;99.90
9849;DHT22;4963;51.444;6.528;2022-10-16T06:16:34;13.00;99.90
9849;DHT22;4963;51.444;6.528;2022-10-16T06:19:02;13.00;99.90
9849;DHT22;4963;51.444;6.528;2022-10-16T06:21:31;13.00;99.90
9849;DHT22;4963;51.444;6.528;2022-10-16T06:23:58;13.00;99.90
9849;DHT22;4963;51.444;6.528;2022-10-16T06:26:27;13.00;99.90
9849;DHT22;4963;51.444;6.528;2022-10-16T06:28:54;13.00;99.90
9849;DHT22;4963;51.444;6.528;2022-10-16T06:31:22;13.00;99.90
9849;DHT22;4963;51.444;6.528;2022-10-16T06:33:54;13.00;99.90
9849;DHT22;4963;51.444;6.528;2022-10-16T06:36:21;13.10;99.90
9849;DHT22;4963;51.444;6.528;2022-10-16T06:38:49;13.10;99.90
9849;DHT22;4963;51.444;6.528;2022-10-16T06:41:17;13.00;99.90
9849;DHT22;4963;51.444;6.528;2022-10-16T06:43:44;13.00;99.90
9849;DHT22;4963;51.444;6.528;2022-10-16T06:46:12;13.00;99.90
9849;DHT22;4963;51.444;6.528;2022-10-16T06:48:39;13.00;99.90
9849;DHT22;4963;51.444;6.528;2022-10-16T06:51:11;13.00;99.90
9849;DHT22;4963;51.444;6.528;2022-10-16T06:53:40;13.10;99.90
9849;DHT22;4963;51.444;6.528;2022-10-16T06:56:08;13.10;99.90
9849;DHT22;4963;51.444;6.528;2022-10-16T06:58:35;13.00;99.90
9849;DHT22;4963;51.444;6.528;2022-10-16T07:01:02;13.00;99.90
9849;DHT22;4963;51.444;6.528;2022-10-16T07:03:29;13.10;99.90
9849;DHT22;4963;51.444;6.528;2022-10-16T07:05:55;13.10;99.90
9849;DHT22;4963;51.444;6.528;2022-10-16T07:08:24;13.00;99.90
9849;DHT22;4963;51.444;6.528;2022-10-16T07:10:58;13.10;99.90
9849;DHT22;4963;51.444;6.528;2022-10-16T07:13:25;13.10;99.90
9849;DHT22;4963;51.444;6.528;2022-10-16T07:15:52;13.10;99.90
9849;DHT22;4963;51.444;6.528;2022-10-16T07:18:19;13.00;99.90
9849;DHT22;4963;51.444;6.528;2022-10-16T07:20:46;13.00;99.90
9849;DHT22;4963;51.444;6.528;2022-10-16T07:23:12;13.00;99.90
9849;DHT22;4963;51.444;6.528;2022-10-16T07:25:40;13.00;99.90
9849;DHT22;4963;51.444;6.528;2022-10-16T07:28:07;13.10;99.90
9849;DHT22;4963;51.444;6.528;2022-10-16T07:30:35;13.10;99.90
9849;DHT22;4963;51.444;6.528;2022-10-16T07:33:03;13.10;99.90
9849;DHT22;4963;51.444;6.528;2022-10-16T07:35:30;13.10;99.90
9849;DHT22;4963;51.444;6.528;2022-10-16T07:37:56;13.20;99.90
9849;DHT22;4963;51.444;6.528;2022-10-16T07:40:23;13.20;99.90
9849;DHT22;4963;51.444;6.528;2022-10-16T07:42:53;13.30;99.90
9849;DHT22;4963;51.444;6.528;2022-10-16T07:45:20;13.30;99.90
9849;DHT22;4963;51.444;6.528;2022-10-16T07:47:47;13.30;99.90
9849;DHT22;4963;51.444;6.528;2022-10-16T07:50:14;13.30;99.90
9849;DHT22;4963;51.444;6.528;2022-10-16T07:52:41;13.40;99.90
9849;DHT22;4963;51.444;6.528;2022-10-16T07:55:08;13.40;99.90
9849;DHT22;4963;51.444;6.528;2022-10-16T07:57:35;13.40;99.90
9849;DHT22;4963;51.444;6.528;2022-10-16T08:00:03;13.50;99.90
9849;DHT22;4963;51.444;6.528;2022-10-16T08:02:31;13.60;99.90
9849;DHT22;4963;51.444;6.528;2022-10-16T08:04:58;13.60;99.90
9849;DHT22;4963;51.444;6.528;2022-10-16T08:07:25;13.70;99.90
9849;DHT22;4963;51.444;6.528;2022-10-16T08:09:51;13.70;99.90
9849;DHT22;4963;51.444;6.528;2022-10-16T08:12:18;13.80;99.90
9849;DHT22;4963;51.444;6.528;2022-10-16T08:14:45;13.90;99.90
9849;DHT22;4963;51.444;6.528;2022-10-16T08:17:15;14.00;99.90
9849;DHT22;4963;51.444;6.528;2022-10-16T08:19:44;14.20;99.90
9849;DHT22;4963;51.444;6.528;2022-10-16T08:22:11;14.40;99.90
9849;DHT22;4963;51.444;6.528;2022-10-16T08:24:38;14.60;99.90
9849;DHT22;4963;51.444;6.528;2022-10-16T08:27:05;14.70;99.90
9849;DHT22;4963;51.444;6.528;2022-10-16T08:29:32;14.80;99.90
9849;DHT22;4963;51.444;6.528;2022-10-16T08:31:59;15.00;99.90
9849;DHT22;4963;51.444;6.528;2022-10-16T08:34:27;15.10;99.90
9849;DHT22;4963;51.444;6.528;2022-10-16T08:36:54;15.10;99.90
9849;DHT22;4963;51.444;6.528;2022-10-16T08:39:21;15.20;99.90
9849;DHT22;4963;51.444;6.528;2022-10-16T08:42:11;15.20;99.90
9849;DHT22;4963;51.444;6.528;2022-10-16T08:45:07;15.20;99.90
9849;DHT22;4963;51.444;6.528;2022-10-16T08:47:43;15.30;99.90
9849;DHT22;4963;51.444;6.528;2022-10-16T08:50:14;15.30;99.90
9849;DHT22;4963;51.444;6.528;2022-10-16T08:52:44;15.30;99.90
9849;DHT22;4963;51.444;6.528;2022-10-16T08:55:26;15.30;99.90
9849;DHT22;4963;51.444;6.528;2022-10-16T08:57:55;15.30;99.90
9849;DHT22;4963;51.444;6.528;2022-10-16T09:00:22;15.40;99.90
9849;DHT22;4963;51.444;6.528;2022-10-16T09:02:53;15.40;99.90
9849;DHT22;4963;51.444;6.528;2022-10-16T09:08:12;15.50;99.90
9849;DHT22;4963;51.444;6.528;2022-10-16T09:10:48;15.50;99.90
9849;DHT22;4963;51.444;6.528;2022-10-16T09:13:23;15.50;99.90
9849;DHT22;4963;51.444;6.528;2022-10-16T09:15:56;15.60;99.90
9849;DHT22;4963;51.444;6.528;2022-10-16T09:18:29;15.60;99.90
9849;DHT22;4963;51.444;6.528;2022-10-16T09:21:06;15.60;99.90
9849;DHT22;4963;51.444;6.528;2022-10-16T09:23:37;15.70;99.90
9849;DHT22;4963;51.444;6.528;2022-10-16T09:26:05;15.70;99.90
9849;DHT22;4963;51.444;6.528;2022-10-16T09:28:36;15.80;99.90
9849;DHT22;4963;51.444;6.528;2022-10-16T09:31:02;15.80;99.90
9849;DHT22;4963;51.444;6.528;2022-10-16T09:33:34;15.80;99.90
9849;DHT22;4963;51.444;6.528;2022-10-16T09:36:05;15.90;99.90
9849;DHT22;4963;51.444;6.528;2022-10-16T09:38:33;15.90;99.90
9849;DHT22;4963;51.444;6.528;2022-10-16T09:41:03;16.00;99.90
9849;DHT22;4963;51.444;6.528;2022-10-16T09:43:34;16.00;99.90
9849;DHT22;4963;51.444;6.528;2022-10-16T09:46:07;16.10;99.90
9849;DHT22;4963;51.444;6.528;2022-10-16T09:48:37;16.10;99.90
9849;DHT22;4963;51.444;6.528;2022-10-16T09:51:16;16.20;99.90
9849;DHT22;4963;51.444;6.528;2022-10-16T09:53:46;16.20;99.90
9849;DHT22;4963;51.444;6.528;2022-10-16T09:56:21;16.30;99.90
9849;DHT22;4963;51.444;6.528;2022-10-16T09:58:50;16.30;99.90
9849;DHT22;4963;51.444;6.528;2022-10-16T10:01:17;16.30;99.90
9849;DHT22;4963;51.444;6.528;2022-10-16T10:03:45;16.30;99.90
9849;DHT22;4963;51.444;6.528;2022-10-16T10:06:23;16.30;99.90
9849;DHT22;4963;51.444;6.528;2022-10-16T10:08:59;16.30;99.90
9849;DHT22;4963;51.444;6.528;2022-10-16T10:11:44;16.30;99.90
9849;DHT22;4963;51.444;6.528;2022-10-16T10:14:19;16.40;99.90
9849;DHT22;4963;51.444;6.528;2022-10-16T10:16:47;16.40;99.90
9849;DHT22;4963;51.444;6.528;2022-10-16T10:19:15;16.40;99.90
9849;DHT22;4963;51.444;6.528;2022-10-16T10:21:44;16.40;99.90
9849;DHT22;4963;51.444;6.528;2022-10-16T10:24:12;16.40;99.90
9849;DHT22;4963;51.444;6.528;2022-10-16T10:26:44;16.40;99.90
9849;DHT22;4963;51.444;6.528;2022-10-16T10:29:20;16.40;99.90
9849;DHT22;4963;51.444;6.528;2022-10-16T10:31:58;16.50;99.90
9849;DHT22;4963;51.444;6.528;2022-10-16T10:34:45;16.50;99.90
9849;DHT22;4963;51.444;6.528;2022-10-16T10:37:29;16.60;99.90
9849;DHT22;4963;51.444;6.528;2022-10-16T10:40:04;16.50;99.90
9849;DHT22;4963;51.444;6.528;2022-10-16T10:42:36;16.60;99.90
9849;DHT22;4963;51.444;6.528;2022-10-16T10:45:21;16.60;99.90
9849;DHT22;4963;51.444;6.528;2022-10-16T10:47:59;16.60;99.90
9849;DHT22;4963;51.444;6.528;2022-10-16T10:50:35;16.60;99.90
9849;DHT22;4963;51.444;6.528;2022-10-16T10:53:16;16.60;99.90
9849;DHT22;4963;51.444;6.528;2022-10-16T10:55:49;16.60;99.90
9849;DHT22;4963;51.444;6.528;2022-10-16T10:58:49;16.70;99.90
9849;DHT22;4963;51.444;6.528;2022-10-16T11:01:25;16.70;99.90
9849;DHT22;4963;51.444;6.528;2022-10-16T11:04:06;16.80;99.90
9849;DHT22;4963;51.444;6.528;2022-10-16T11:06:40;16.80;99.90
9849;DHT22;4963;51.444;6.528;2022-10-16T11:09:13;16.80;99.90
9849;DHT22;4963;51.444;6.528;2022-10-16T11:11:44;16.90;99.90
9849;DHT22;4963;51.444;6.528;2022-10-16T11:14:16;16.90;99.90
9849;DHT22;4963;51.444;6.528;2022-10-16T11:16:49;17.00;99.90
9849;DHT22;4963;51.444;6.528;2022-10-16T11:19:27;17.10;99.90
9849;DHT22;4963;51.444;6.528;2022-10-16T11:22:00;17.10;99.90
9849;DHT22;4963;51.444;6.528;2022-10-16T11:24:36;17.20;99.90
9849;DHT22;4963;51.444;6.528;2022-10-16T11:27:08;17.20;99.90
9849;DHT22;4963;51.444;6.528;2022-10-16T11:29:41;17.30;99.90
9849;DHT22;4963;51.444;6.528;2022-10-16T11:32:18;17.20;99.90
9849;DHT22;4963;51.444;6.528;2022-10-16T11:34:51;17.20;99.90
9849;DHT22;4963;51.444;6.528;2022-10-16T11:37:20;17.30;99.90
9849;DHT22;4963;51.444;6.528;2022-10-16T11:39:50;17.30;99.90
9849;DHT22;4963;51.444;6.528;2022-10-16T11:42:22;17.40;99.90
9849;DHT22;4963;51.444;6.528;2022-10-16T11:44:57;17.50;99.90
9849;DHT22;4963;51.444;6.528;2022-10-16T11:47:31;17.50;99.90
9849;DHT22;4963;51.444;6.528;2022-10-16T11:50:02;17.60;99.90
9849;DHT22;4963;51.444;6.528;2022-10-16T11:52:36;17.60;99.90
9849;DHT22;4963;51.444;6.528;2022-10-16T11:55:13;17.60;99.90
9849;DHT22;4963;51.444;6.528;2022-10-16T11:57:45;17.70;99.90
9849;DHT22;4963;51.444;6.528;2022-10-16T12:00:21;17.70;99.90
9849;DHT22;4963;51.444;6.528;2022-10-16T12:02:54;17.70;99.90
9849;DHT22;4963;51.444;6.528;2022-10-16T12:05:30;17.70;99.90
9849;DHT22;4963;51.444;6.528;2022-10-16T12:08:06;17.80;99.90
9849;DHT22;4963;51.444;6.528;2022-10-16T12:10:36;17.80;99.90
9849;DHT22;4963;51.444;6.528;2022-10-16T12:13:04;17.80;99.90
9849;DHT22;4963;51.444;6.528;2022-10-16T12:15:33;17.90;99.90
9849;DHT22;4963;51.444;6.528;2022-10-16T12:18:00;17.90;99.90
9849;DHT22;4963;51.444;6.528;2022-10-16T12:20:29;17.90;99.90
9849;DHT22;4963;51.444;6.528;2022-10-16T12:22:59;18.00;99.90
9849;DHT22;4963;51.444;6.528;2022-10-16T12:25:29;18.00;99.90
9849;DHT22;4963;51.444;6.528;2022-10-16T12:28:04;18.00;99.90
9849;DHT22;4963;51.444;6.528;2022-10-16T12:30:33;18.00;99.90
9849;DHT22;4963;51.444;6.528;2022-10-16T12:33:02;18.00;99.90
9849;DHT22;4963;51.444;6.528;2022-10-16T12:35:32;18.00;99.90
9849;DHT22;4963;51.444;6.528;2022-10-16T12:38:08;18.00;99.90
9849;DHT22;4963;51.444;6.528;2022-10-16T12:40:39;17.90;99.90
9849;DHT22;4963;51.444;6.528;2022-10-16T12:43:26;17.90;99.90
9849;DHT22;4963;51.444;6.528;2022-10-16T12:46:03;17.90;99.90
9849;DHT22;4963;51.444;6.528;2022-10-16T12:48:30;17.80;99.90
9849;DHT22;4963;51.444;6.528;2022-10-16T12:50:57;17.80;99.90
9849;DHT22;4963;51.444;6.528;2022-10-16T12:53:35;17.80;99.90
9849;DHT22;4963;51.444;6.528;2022-10-16T12:56:09;17.70;99.90
9849;DHT22;4963;51.444;6.528;2022-10-16T12:58:53;17.80;99.90
9849;DHT22;4963;51.444;6.528;2022-10-16T13:01:36;17.80;99.90
9849;DHT22;4963;51.444;6.528;2022-10-16T13:04:28;17.80;99.90
9849;DHT22;4963;51.444;6.528;2022-10-16T13:07:05;17.80;99.90
9849;DHT22;4963;51.444;6.528;2022-10-16T13:09:47;17.80;99.90
9849;DHT22;4963;51.444;6.528;2022-10-16T13:12:28;17.80;99.90
9849;DHT22;4963;51.444;6.528;2022-10-16T13:15:16;17.80;99.90
9849;DHT22;4963;51.444;6.528;2022-10-16T13:17:54;17.90;99.90
9849;DHT22;4963;51.444;6.528;2022-10-16T13:20:28;17.90;99.90
9849;DHT22;4963;51.444;6.528;2022-10-16T13:23:05;17.90;99.90
9849;DHT22;4963;51.444;6.528;2022-10-16T13:25:44;17.90;99.90
9849;DHT22;4963;51.444;6.528;2022-10-16T13:28:13;17.80;99.90
9849;DHT22;4963;51.444;6.528;2022-10-16T13:30:43;17.80;99.90
9849;DHT22;4963;51.444;6.528;2022-10-16T13:33:15;17.80;99.90
9849;DHT22;4963;51.444;6.528;2022-10-16T13:35:48;17.80;99.90
9849;DHT22;4963;51.444;6.528;2022-10-16T13:38:17;17.80;99.90
9849;DHT22;4963;51.444;6.528;2022-10-16T13:40:53;17.80;99.90
9849;DHT22;4963;51.444;6.528;2022-10-16T13:43:23;17.80;99.90
9849;DHT22;4963;51.444;6.528;2022-10-16T13:45:58;17.80;99.90
9849;DHT22;4963;51.444;6.528;2022-10-16T13:48:25;17.80;99.90
9849;DHT22;4963;51.444;6.528;2022-10-16T13:51:11;17.80;99.90
9849;DHT22;4963;51.444;6.528;2022-10-16T13:53:38;17.90;99.90
9849;DHT22;4963;51.444;6.528;2022-10-16T13:56:07;18.00;99.90
9849;DHT22;4963;51.444;6.528;2022-10-16T13:58:36;18.00;99.90
9849;DHT22;4963;51.444;6.528;2022-10-16T14:01:06;18.00;99.90
9849;DHT22;4963;51.444;6.528;2022-10-16T14:03:41;18.00;99.90
9849;DHT22;4963;51.444;6.528;2022-10-16T14:06:13;18.00;99.90
9849;DHT22;4963;51.444;6.528;2022-10-16T14:08:44;17.90;99.90
9849;DHT22;4963;51.444;6.528;2022-10-16T14:11:11;17.90;99.90
9849;DHT22;4963;51.444;6.528;2022-10-16T14:13:42;17.90;99.90
9849;DHT22;4963;51.444;6.528;2022-10-16T14:16:17;17.90;99.90
9849;DHT22;4963;51.444;6.528;2022-10-16T14:18:55;17.80;99.90
9849;DHT22;4963;51.444;6.528;2022-10-16T14:21:22;17.80;99.90
9849;DHT22;4963;51.444;6.528;2022-10-16T14:23:49;17.80;99.90
9849;DHT22;4963;51.444;6.528;2022-10-16T14:26:19;17.80;99.90
9849;DHT22;4963;51.444;6.528;2022-10-16T14:28:47;17.80;99.90
9849;DHT22;4963;51.444;6.528;2022-10-16T14:31:27;17.80;99.90
9849;DHT22;4963;51.444;6.528;2022-10-16T14:33:55;17.90;99.90
9849;DHT22;4963;51.444;6.528;2022-10-16T14:36:22;17.90;99.90
9849;DHT22;4963;51.444;6.528;2022-10-16T14:38:57;17.90;99.90
9849;DHT22;4963;51.444;6.528;2022-10-16T14:41:24;17.80;99.90
9849;DHT22;4963;51.444;6.528;2022-10-16T14:43:53;17.80;99.90
9849;DHT22;4963;51.444;6.528;2022-10-16T14:46:22;17.80;99.90
9849;DHT22;4963;51.444;6.528;2022-10-16T14:49:00;17.80;99.90
9849;DHT22;4963;51.444;6.528;2022-10-16T14:51:27;17.80;99.90
9849;DHT22;4963;51.444;6.528;2022-10-16T14:53:54;17.80;99.90
9849;DHT22;4963;51.444;6.528;2022-10-16T14:56:23;17.80;99.90
9849;DHT22;4963;51.444;6.528;2022-10-16T14:58:51;17.70;99.90
9849;DHT22;4963;51.444;6.528;2022-10-16T15:01:19;17.70;99.90
9849;DHT22;4963;51.444;6.528;2022-10-16T15:03:46;17.60;99.90
9849;DHT22;4963;51.444;6.528;2022-10-16T15:06:15;17.60;99.90
9849;DHT22;4963;51.444;6.528;2022-10-16T15:08:42;17.60;99.90
9849;DHT22;4963;51.444;6.528;2022-10-16T15:11:11;17.60;99.90
9849;DHT22;4963;51.444;6.528;2022-10-16T15:13:39;17.50;99.90
9849;DHT22;4963;51.444;6.528;2022-10-16T15:16:08;17.50;99.90
9849;DHT22;4963;51.444;6.528;2022-10-16T15:18:37;17.50;99.90
9849;DHT22;4963;51.444;6.528;2022-10-16T15:21:04;17.50;99.90
9849;DHT22;4963;51.444;6.528;2022-10-16T15:23:32;17.60;99.90
9849;DHT22;4963;51.444;6.528;2022-10-16T15:25:59;17.60;99.90
9849;DHT22;4963;51.444;6.528;2022-10-16T15:28:26;17.60;99.90
9849;DHT22;4963;51.444;6.528;2022-10-16T15:30:55;17.60;99.90
9849;DHT22;4963;51.444;6.528;2022-10-16T15:33:23;17.70;99.90
9849;DHT22;4963;51.444;6.528;2022-10-16T15:35:53;17.60;99.90
9849;DHT22;4963;51.444;6.528;2022-10-16T15:38:21;17.60;99.90
9849;DHT22;4963;51.444;6.528;2022-10-16T15:40:50;17.60;99.90
9849;DHT22;4963;51.444;6.528;2022-10-16T15:43:17;17.60;99.90
9849;DHT22;4963;51.444;6.528;2022-10-16T15:45:44;17.60;99.90
9849;DHT22;4963;51.444;6.528;2022-10-16T15:48:18;17.70;99.90
9849;DHT22;4963;51.444;6.528;2022-10-16T15:50:45;17.60;99.90
9849;DHT22;4963;51.444;6.528;2022-10-16T15:53:12;17.60;99.90
9849;DHT22;4963;51.444;6.528;2022-10-16T15:55:39;17.60;99.90
9849;DHT22;4963;51.444;6.528;2022-10-16T15:58:07;17.50;99.90
9849;DHT22;4963;51.444;6.528;2022-10-16T16:00:33;17.50;99.90
9849;DHT22;4963;51.444;6.528;2022-10-16T16:03:00;17.40;99.90
9849;DHT22;4963;51.444;6.528;2022-10-16T16:05:27;17.40;99.90
9849;DHT22;4963;51.444;6.528;2022-10-16T16:07:54;17.40;99.90
9849;DHT22;4963;51.444;6.528;2022-10-16T16:10:21;17.40;99.90
9849;DHT22;4963;51.444;6.528;2022-10-16T16:12:48;17.30;99.90
9849;DHT22;4963;51.444;6.528;2022-10-16T16:15:19;17.30;99.90
9849;DHT22;4963;51.444;6.528;2022-10-16T16:17:46;17.30;99.90
9849;DHT22;4963;51.444;6.528;2022-10-16T16:20:13;17.30;99.90
9849;DHT22;4963;51.444;6.528;2022-10-16T16:22:40;17.20;99.90